Time;durP1;ratioP1;P1;durP2;ratioP2;P2;SDS_P1;SDS_P2;PMS_P1;PMS_P2;Temp;Humidity;BMP_temperature;BMP_pressure;BME280_temperature;BME280_humidity;BME280_pressure;Samples;Min_cycle;Max_cycle;Signal;HPM_P1;HPM_P2
2022/12/31 00:02:06;;;;;;;10.43;2.88;;;11.40;99.90;;;;;;5073306;28;20065;-76
2022/12/31 00:04:32;;;;;;;13.50;2.33;;;11.40;99.90;;;;;;5065838;28;20645;-77
2022/12/31 00:06:57;;;;;;;9.15;2.50;;;11.40;99.90;;;;;;5028854;28;20049;-76
2022/12/31 00:09:23;;;;;;;12.80;3.13;;;11.40;99.90;;;;;;5048372;28;20483;-76
2022/12/31 00:11:48;;;;;;;13.80;3.53;;;12.40;99.90;;;;;;5071842;28;20056;-77
2022/12/31 00:14:14;;;;;;;14.43;3.58;;;12.20;99.90;;;;;;5031436;28;20055;-77
2022/12/31 00:16:41;;;;;;;18.58;3.70;;;11.40;99.90;;;;;;5049401;28;20044;-77
2022/12/31 00:19:09;;;;;;;21.08;4.65;;;11.50;99.90;;;;;;5045180;28;20091;-76
2022/12/31 00:21:36;;;;;;;19.15;5.28;;;12.00;99.90;;;;;;5043673;28;20036;-78
2022/12/31 00:24:03;;;;;;;18.48;3.63;;;11.50;99.90;;;;;;5046937;28;20123;-77
2022/12/31 00:26:31;;;;;;;13.20;3.70;;;11.50;99.90;;;;;;5051753;28;20047;-77
2022/12/31 00:28:58;;;;;;;20.83;3.75;;;12.80;99.90;;;;;;5029032;28;20499;-77
2022/12/31 00:31:34;;;;;;;21.70;4.85;;;11.50;99.90;;;;;;5059114;28;20052;-78
2022/12/31 00:34:01;;;;;;;18.33;3.58;;;11.50;99.90;;;;;;5043586;28;20033;-77
2022/12/31 00:36:35;;;;;;;20.55;4.57;;;11.60;99.90;;;;;;5022253;28;20051;-76
2022/12/31 00:39:02;;;;;;;;;;;11.50;99.90;;;;;;5035792;28;20041;-76
2022/12/31 00:41:29;;;;;;;16.55;4.68;;;12.50;99.90;;;;;;5048603;28;19929;-76
2022/12/31 00:43:54;;;;;;;18.15;3.63;;;11.50;99.90;;;;;;5018560;28;20665;-77
2022/12/31 00:46:21;;;;;;;19.88;4.93;;;11.70;99.90;;;;;;5058446;28;20094;-77
2022/12/31 00:48:47;;;;;;;22.95;4.65;;;11.40;99.90;;;;;;5030124;28;20048;-76
2022/12/31 00:51:16;;;;;;;22.27;3.90;;;11.40;99.90;;;;;;5041060;28;20071;-77
2022/12/31 00:53:43;;;;;;;16.30;3.40;;;11.50;99.90;;;;;;5046593;28;20150;-77
2022/12/31 00:56:20;;;;;;;18.60;3.88;;;11.50;99.90;;;;;;5026696;28;20045;-76
2022/12/31 00:58:47;;;;;;;16.73;4.47;;;11.50;99.90;;;;;;5038268;28;20123;-76
2022/12/31 01:01:24;;;;;;;18.58;4.40;;;12.10;99.90;;;;;;5045760;28;20453;-78
2022/12/31 01:03:52;;;;;;;18.27;3.90;;;11.40;99.90;;;;;;5043645;28;20134;-76
2022/12/31 01:06:19;;;;;;;17.88;3.38;;;11.50;99.90;;;;;;5031719;28;21870;-76
2022/12/31 01:08:47;;;;;;;16.50;3.97;;;11.50;99.90;;;;;;5035525;28;20496;-76
2022/12/31 01:11:20;;;;;;;19.80;4.47;;;11.40;99.90;;;;;;5076568;28;20060;-76
2022/12/31 01:13:48;;;;;;;13.77;4.03;;;11.40;99.90;;;;;;5044172;28;20048;-76
2022/12/31 01:16:16;;;;;;;17.80;3.67;;;11.40;99.90;;;;;;5044882;28;20041;-76
2022/12/31 01:18:41;;;;;;;14.60;3.10;;;11.50;99.90;;;;;;5034917;28;20033;-76
2022/12/31 01:21:09;;;;;;;16.55;4.05;;;12.10;99.90;;;;;;5042538;28;20045;-77
2022/12/31 01:23:35;;;;;;;13.13;3.75;;;11.50;99.90;;;;;;5033416;28;20055;-78
2022/12/31 01:26:03;;;;;;;15.45;3.50;;;11.50;99.90;;;;;;5048120;28;20049;-77
2022/12/31 01:28:29;;;;;;;15.15;4.07;;;11.50;99.90;;;;;;5044229;28;20159;-77
2022/12/31 01:30:56;;;;;;;14.43;3.78;;;11.50;99.90;;;;;;5044480;28;20045;-77
2022/12/31 01:33:22;;;;;;;15.23;3.88;;;12.00;99.90;;;;;;5046713;28;20044;-76
2022/12/31 01:35:48;;;;;;;12.07;3.13;;;11.90;99.90;;;;;;5041015;28;20388;-77
2022/12/31 01:38:14;;;;;;;14.65;3.65;;;11.50;99.90;;;;;;5050052;28;20048;-77
2022/12/31 01:40:40;;;;;;;15.00;4.60;;;11.50;99.90;;;;;;5033156;28;20633;-76
2022/12/31 01:43:18;;;;;;;12.85;3.63;;;11.50;99.90;;;;;;5053233;28;20045;-76
2022/12/31 01:45:51;;;;;;;13.50;4.05;;;11.80;99.90;;;;;;5027387;28;20057;-77
2022/12/31 01:48:22;;;;;;;12.60;3.67;;;11.40;99.90;;;;;;5046150;28;20044;-76
2022/12/31 01:50:49;;;;;;;11.55;3.75;;;11.40;99.90;;;;;;5054056;28;20409;-76
2022/12/31 01:53:17;;;;;;;10.07;3.63;;;11.40;99.90;;;;;;5047277;28;20062;-76
2022/12/31 01:55:53;;;;;;;7.75;3.30;;;12.10;99.90;;;;;;5047030;28;20037;-78
2022/12/31 01:58:34;;;;;;;13.75;3.40;;;11.40;99.90;;;;;;5045404;28;20045;-77
2022/12/31 02:01:01;;;;;;;10.13;3.42;;;11.40;99.90;;;;;;5042209;28;20247;-77
2022/12/31 02:03:28;;;;;;;6.45;3.22;;;11.40;99.90;;;;;;5050178;28;20048;-77
2022/12/31 02:05:56;;;;;;;6.97;3.53;;;12.00;99.90;;;;;;5041250;28;20509;-77
2022/12/31 02:08:22;;;;;;;10.25;3.85;;;11.40;99.90;;;;;;5045613;28;20122;-76
2022/12/31 02:10:48;;;;;;;7.57;3.72;;;10.60;99.90;;;;;;5039080;28;20179;-77
2022/12/31 02:13:14;;;;;;;7.70;3.65;;;11.60;99.90;;;;;;5079419;28;20045;-77
2022/12/31 02:16:09;;;;;;;8.57;3.35;;;12.20;99.90;;;;;;5050268;28;20162;-76
2022/12/31 02:18:37;;;;;;;;;;;11.40;99.90;;;;;;5039265;28;20040;-77
2022/12/31 02:21:39;;;;;;;7.75;3.40;;;11.40;99.90;;;;;;5049175;28;20380;-78
2022/12/31 02:24:36;;;;;;;9.70;3.45;;;11.40;99.90;;;;;;5002658;28;20067;-77
2022/12/31 02:27:28;;;;;;;10.77;3.45;;;11.40;99.90;;;;;;5061158;28;20146;-78
2022/12/31 02:30:12;;;;;;;9.25;3.65;;;11.50;99.90;;;;;;5074878;28;20041;-78
2022/12/31 02:32:52;;;;;;;9.05;2.50;;;11.40;99.90;;;;;;5081544;28;20099;-77
2022/12/31 02:35:48;;;;;;;10.05;2.97;;;11.40;99.90;;;;;;5056130;28;20048;-77
2022/12/31 02:38:25;;;;;;;8.40;3.08;;;11.40;99.90;;;;;;5054837;28;20135;-76
2022/12/31 02:40:53;;;;;;;11.23;2.63;;;11.40;99.90;;;;;;5044246;28;20566;-77
2022/12/31 02:43:19;;;;;;;7.03;2.45;;;12.10;99.90;;;;;;5025449;28;20071;-75
2022/12/31 02:45:50;;;;;;;6.20;2.45;;;11.40;99.90;;;;;;5046863;28;20585;-76
2022/12/31 02:48:46;;;;;;;7.90;2.15;;;11.30;99.90;;;;;;5042330;28;20048;-77
2022/12/31 02:51:35;;;;;;;9.85;2.08;;;11.30;99.90;;;;;;5046254;28;20051;-77
2022/12/31 02:54:13;;;;;;;4.38;1.67;;;11.30;99.90;;;;;;5066565;28;20049;-77
2022/12/31 02:56:59;;;;;;;5.10;1.52;;;11.30;99.90;;;;;;5049590;28;20040;-77
2022/12/31 03:02:23;;;;;;;4.25;1.45;;;11.20;99.90;;;;;;5046250;28;20485;-76
2022/12/31 03:04:51;;;;;;;10.00;2.15;;;11.20;99.90;;;;;;5027130;28;20099;-76
2022/12/31 03:07:23;;;;;;;4.28;1.45;;;11.20;99.90;;;;;;5045922;28;20050;-77
2022/12/31 03:09:50;;;;;;;3.97;1.52;;;11.10;99.90;;;;;;5043185;28;20069;-77
2022/12/31 03:15:05;;;;;;;6.07;1.50;;;11.10;99.90;;;;;;5043167;28;20049;-77
2022/12/31 03:17:32;;;;;;;5.03;1.10;;;12.30;99.90;;;;;;5043919;28;20045;-77
2022/12/31 03:22:42;;;;;;;8.23;1.08;;;11.00;99.90;;;;;;5043263;28;20045;-76
2022/12/31 03:28:06;;;;;;;6.38;0.88;;;11.00;99.90;;;;;;5039305;28;20041;-77
2022/12/31 03:30:32;;;;;;;7.70;1.23;;;11.00;99.90;;;;;;5049096;28;20116;-78
2022/12/31 03:32:59;;;;;;;4.40;0.65;;;10.90;99.90;;;;;;5041818;28;20762;-76
2022/12/31 03:35:26;;;;;;;3.80;0.45;;;11.60;99.90;;;;;;5048035;28;20032;-77
2022/12/31 03:37:53;;;;;;;4.38;0.50;;;11.20;99.90;;;;;;5076416;28;20048;-77
2022/12/31 03:40:21;;;;;;;3.83;0.82;;;10.90;99.90;;;;;;5042503;28;20052;-76
2022/12/31 03:42:46;;;;;;;4.13;0.63;;;10.90;99.90;;;;;;5050761;28;20056;-78
2022/12/31 03:45:13;;;;;;;4.35;0.60;;;10.80;99.90;;;;;;5026281;28;20400;-77
2022/12/31 03:47:39;;;;;;;4.28;0.80;;;10.80;99.90;;;;;;5052168;28;20120;-76
2022/12/31 03:50:07;;;;;;;6.07;0.90;;;10.70;99.90;;;;;;5045485;28;20051;-76
2022/12/31 03:52:32;;;;;;;3.90;0.60;;;10.80;99.90;;;;;;5049617;28;20124;-76
2022/12/31 03:54:58;;;;;;;3.67;0.40;;;10.70;99.90;;;;;;5047855;28;20121;-77
2022/12/31 03:57:24;;;;;;;5.20;1.08;;;11.40;99.90;;;;;;5056231;28;20040;-76
2022/12/31 03:59:51;;;;;;;4.20;0.65;;;11.00;99.90;;;;;;5046506;28;20049;-76
2022/12/31 04:02:16;;;;;;;4.18;0.80;;;10.70;99.90;;;;;;5085095;28;20080;-76
2022/12/31 04:04:42;;;;;;;4.28;0.77;;;10.70;99.90;;;;;;5046850;28;20087;-76
2022/12/31 04:07:08;;;;;;;4.00;0.60;;;10.60;99.90;;;;;;5044098;28;20041;-76
2022/12/31 04:09:34;;;;;;;5.30;1.00;;;11.00;99.90;;;;;;5024201;28;20052;-77
2022/12/31 04:11:59;;;;;;;6.18;1.27;;;11.80;99.90;;;;;;5069779;28;20075;-77
2022/12/31 04:14:25;;;;;;;4.55;0.73;;;10.60;99.90;;;;;;5040546;28;20419;-77
2022/12/31 04:16:53;;;;;;;4.45;0.40;;;11.80;99.90;;;;;;5039948;28;20052;-77
2022/12/31 04:19:19;;;;;;;3.90;0.63;;;10.70;99.90;;;;;;5039680;28;20033;-76
2022/12/31 04:21:45;;;;;;;7.47;0.90;;;10.60;99.90;;;;;;5039223;28;20453;-75
2022/12/31 04:24:11;;;;;;;6.40;1.13;;;10.60;99.90;;;;;;5039005;28;20516;-76
2022/12/31 04:26:37;;;;;;;5.97;1.27;;;10.60;99.90;;;;;;5033570;28;20091;-76
2022/12/31 04:29:03;;;;;;;6.53;0.98;;;11.40;99.90;;;;;;5042307;28;20041;-76
2022/12/31 04:31:29;;;;;;;3.95;1.10;;;10.60;99.90;;;;;;5036426;28;20063;-76
2022/12/31 04:33:55;;;;;;;9.27;1.38;;;11.60;99.90;;;;;;5039205;28;20040;-77
2022/12/31 04:36:21;;;;;;;6.20;1.38;;;10.60;99.90;;;;;;5044176;28;20368;-76
2022/12/31 04:38:47;;;;;;;6.25;1.30;;;11.90;99.90;;;;;;5054866;28;20043;-76
2022/12/31 04:41:15;;;;;;;3.05;1.40;;;11.40;99.90;;;;;;5052638;28;20366;-76
2022/12/31 04:43:46;;;;;;;7.70;1.20;;;10.60;99.90;;;;;;5053730;28;20476;-77
2022/12/31 04:46:13;;;;;;;2.85;0.95;;;10.60;99.90;;;;;;5048081;28;20068;-75
2022/12/31 04:48:39;;;;;;;4.35;1.35;;;10.60;99.90;;;;;;5030281;28;20033;-76
2022/12/31 04:51:05;;;;;;;10.38;1.92;;;11.10;99.90;;;;;;5078217;28;20090;-76
2022/12/31 04:53:31;;;;;;;3.40;1.38;;;10.60;99.90;;;;;;5048306;28;20045;-76
2022/12/31 04:55:57;;;;;;;6.47;1.75;;;11.50;99.90;;;;;;5032701;28;20040;-76
2022/12/31 04:58:22;;;;;;;5.50;1.30;;;10.60;99.90;;;;;;5051711;28;20072;-77
2022/12/31 05:00:53;;;;;;;4.72;1.23;;;12.00;99.90;;;;;;5048365;28;20055;-76
2022/12/31 05:03:20;;;;;;;6.43;1.67;;;10.60;99.90;;;;;;5045149;28;20080;-76
2022/12/31 05:05:46;;;;;;;7.25;1.67;;;10.60;99.90;;;;;;5048331;28;20087;-76
2022/12/31 05:08:12;;;;;;;7.50;1.73;;;11.50;99.90;;;;;;5041486;28;20068;-76
2022/12/31 05:10:44;;;;;;;3.25;1.45;;;10.60;99.90;;;;;;5079370;28;20045;-76
2022/12/31 05:13:10;;;;;;;9.15;1.95;;;10.60;99.90;;;;;;5048769;28;20045;-76
2022/12/31 05:15:36;;;;;;;10.10;1.75;;;11.10;99.90;;;;;;5046140;28;20642;-76
2022/12/31 05:18:02;;;;;;;8.15;1.70;;;10.60;99.90;;;;;;5047424;28;20116;-76
2022/12/31 05:20:27;;;;;;;7.82;1.95;;;10.50;99.90;;;;;;5041701;28;20051;-77
2022/12/31 05:22:53;;;;;;;5.53;2.10;;;10.60;99.90;;;;;;5031630;28;20135;-76
2022/12/31 05:25:22;;;;;;;3.95;1.20;;;11.30;99.90;;;;;;5052517;28;20043;-76
2022/12/31 05:27:47;;;;;;;3.38;1.25;;;10.50;99.90;;;;;;5047173;28;20049;-76
2022/12/31 05:30:19;;;;;;;6.97;1.67;;;10.90;99.90;;;;;;5030242;28;20477;-76
2022/12/31 05:32:45;;;;;;;6.80;1.83;;;10.50;99.90;;;;;;5076307;28;20055;-77
2022/12/31 05:35:11;;;;;;;5.32;1.48;;;10.50;99.90;;;;;;5048217;28;20489;-77
2022/12/31 05:37:37;;;;;;;9.02;1.92;;;10.50;99.90;;;;;;5042798;28;20060;-76
2022/12/31 05:40:03;;;;;;;9.80;1.40;;;11.40;99.90;;;;;;5044425;28;20067;-76
2022/12/31 05:42:29;;;;;;;6.70;1.60;;;10.50;99.90;;;;;;5042338;28;20106;-76
2022/12/31 05:44:54;;;;;;;5.32;1.10;;;10.50;99.90;;;;;;5035857;28;20036;-76
2022/12/31 05:47:24;;;;;;;6.07;1.25;;;10.60;99.90;;;;;;5047078;28;20045;-77
2022/12/31 05:49:49;;;;;;;2.25;0.90;;;10.60;99.90;;;;;;5054039;28;20102;-77
2022/12/31 05:52:15;;;;;;;6.07;0.88;;;10.60;99.90;;;;;;5045146;28;20044;-77
2022/12/31 05:54:41;;;;;;;5.68;1.23;;;10.60;99.90;;;;;;5047374;28;20618;-76
2022/12/31 05:57:07;;;;;;;5.88;1.60;;;10.70;99.90;;;;;;5030939;28;20546;-77
2022/12/31 05:59:32;;;;;;;3.85;1.52;;;10.60;99.90;;;;;;5029433;28;20074;-77
2022/12/31 06:01:58;;;;;;;6.10;1.17;;;11.90;99.90;;;;;;5039658;28;20155;-76
2022/12/31 06:04:24;;;;;;;4.75;1.45;;;10.60;99.90;;;;;;5046557;28;20413;-76
2022/12/31 06:06:50;;;;;;;4.25;1.58;;;10.60;99.90;;;;;;5033232;28;20037;-76
2022/12/31 06:09:17;;;;;;;4.45;1.23;;;10.60;99.90;;;;;;5037038;28;20102;-78
2022/12/31 06:11:42;;;;;;;4.22;1.02;;;10.60;99.90;;;;;;5032919;28;20041;-78
2022/12/31 06:14:08;;;;;;;4.68;0.70;;;10.50;99.90;;;;;;5034391;28;20060;-76
2022/12/31 06:16:34;;;;;;;1.60;0.38;;;10.50;99.90;;;;;;5047163;28;20044;-75
2022/12/31 06:19:01;;;;;;;2.17;0.40;;;10.50;99.90;;;;;;5082916;28;20048;-76
2022/12/31 06:21:27;;;;;;;2.63;0.52;;;10.40;99.90;;;;;;5038389;28;20112;-78
2022/12/31 06:23:52;;;;;;;1.40;0.35;;;10.40;99.90;;;;;;5041108;28;20600;-76
2022/12/31 06:26:18;;;;;;;5.40;0.50;;;10.30;99.90;;;;;;5020245;28;20086;-76
2022/12/31 06:28:44;;;;;;;2.33;0.20;;;11.60;99.90;;;;;;5039421;28;20048;-75
2022/12/31 06:31:12;;;;;;;2.38;0.60;;;11.00;99.90;;;;;;5033915;28;20041;-76
2022/12/31 06:33:37;;;;;;;3.58;0.40;;;10.20;99.90;;;;;;5020276;28;20049;-75
2022/12/31 06:36:06;;;;;;;2.97;0.88;;;10.10;99.90;;;;;;5047169;28;20051;-79
2022/12/31 06:38:33;;;;;;;5.32;1.55;;;10.10;99.90;;;;;;5039170;28;20103;-76
2022/12/31 06:41:06;;;;;;;2.88;2.30;;;10.10;99.90;;;;;;5040390;28;20446;-78
2022/12/31 06:43:33;;;;;;;5.15;2.83;;;10.10;99.90;;;;;;5037987;28;20064;-80
2022/12/31 06:46:04;;;;;;;6.70;4.15;;;10.20;99.90;;;;;;5045629;28;20052;-79
2022/12/31 06:48:29;;;;;;;3.47;2.95;;;10.20;99.90;;;;;;5044710;28;20071;-79
2022/12/31 06:50:55;;;;;;;6.80;3.63;;;11.30;99.90;;;;;;5046209;28;20033;-77
2022/12/31 06:53:21;;;;;;;8.23;2.88;;;11.50;99.90;;;;;;5041207;28;20048;-79
2022/12/31 06:55:48;;;;;;;3.53;2.50;;;10.40;99.90;;;;;;5043202;28;20044;-81
2022/12/31 06:58:14;;;;;;;4.65;2.55;;;10.30;99.90;;;;;;5055897;28;20080;-79
2022/12/31 07:00:49;;;;;;;2.92;2.00;;;10.30;99.90;;;;;;5046975;28;20037;-79
2022/12/31 07:03:22;;;;;;;4.13;1.90;;;10.80;99.90;;;;;;5044168;28;20073;-77
2022/12/31 07:05:52;;;;;;;4.72;2.00;;;11.60;99.90;;;;;;5078052;28;20102;-75
2022/12/31 07:08:51;;;;;;;2.97;1.60;;;10.30;99.90;;;;;;5040183;28;20045;-77
2022/12/31 07:11:24;;;;;;;2.50;1.55;;;10.30;99.90;;;;;;5055838;28;20119;-80
2022/12/31 07:14:17;;;;;;;1.85;1.58;;;10.30;99.90;;;;;;5041837;28;20041;-81
2022/12/31 07:16:59;;;;;;;3.47;1.70;;;10.30;99.90;;;;;;5071935;28;20139;-80
2022/12/31 07:19:58;;;;;;;5.07;1.60;;;10.30;99.90;;;;;;5042698;28;20074;-79
2022/12/31 07:22:24;;;;;;;4.10;1.90;;;10.20;99.90;;;;;;5032146;28;20045;-82
2022/12/31 07:24:50;;;;;;;3.28;1.70;;;10.20;99.90;;;;;;5052552;28;20067;-78
2022/12/31 07:27:40;;;;;;;3.67;2.15;;;10.20;99.90;;;;;;5044674;28;20453;-80
2022/12/31 07:30:15;;;;;;;2.95;1.45;;;10.20;99.90;;;;;;5046814;28;20044;-81
2022/12/31 07:32:50;;;;;;;;;;;10.20;99.90;;;;;;5052302;28;20037;-80
2022/12/31 07:35:24;;;;;;;;;;;10.20;99.90;;;;;;5048389;28;19924;-76
2022/12/31 07:37:58;;;;;;;2.83;1.63;;;10.10;99.90;;;;;;5040967;28;19925;-77
2022/12/31 07:40:44;;;;;;;2.88;1.30;;;10.20;99.90;;;;;;5030942;28;20037;-80
2022/12/31 07:43:34;;;;;;;1.83;0.90;;;10.20;99.90;;;;;;5047572;28;20132;-80
2022/12/31 07:45:59;;;;;;;5.15;1.00;;;10.20;99.90;;;;;;5046009;28;20041;-79
2022/12/31 07:48:27;;;;;;;2.58;1.20;;;10.20;99.90;;;;;;5061170;28;20120;-80
2022/12/31 07:50:54;;;;;;;1.80;1.13;;;10.20;99.90;;;;;;5031619;28;20087;-79
2022/12/31 07:53:21;;;;;;;2.70;1.10;;;10.20;99.90;;;;;;5027679;28;20411;-80
2022/12/31 07:55:55;;;;;;;2.60;1.33;;;10.20;99.90;;;;;;5030372;28;20029;-79
2022/12/31 07:58:42;;;;;;;1.85;1.75;;;10.20;99.90;;;;;;5046941;28;20128;-82
2022/12/31 08:01:11;;;;;;;2.95;1.95;;;10.20;99.90;;;;;;5044139;28;20114;-79
2022/12/31 08:03:56;;;;;;;2.10;1.90;;;10.70;99.90;;;;;;5046429;28;20041;-80
2022/12/31 08:06:35;;;;;;;3.17;2.00;;;11.40;99.90;;;;;;5037399;28;20045;-78
2022/12/31 08:09:28;;;;;;;2.35;1.77;;;10.20;99.90;;;;;;5047855;28;20049;-78
2022/12/31 08:11:56;;;;;;;6.47;2.20;;;10.20;99.90;;;;;;5053975;28;20044;-75
2022/12/31 08:14:22;;;;;;;4.38;2.05;;;10.20;99.90;;;;;;5023481;28;20079;-78
2022/12/31 08:16:49;;;;;;;2.22;1.95;;;10.20;99.90;;;;;;5040101;28;20133;-78
2022/12/31 08:19:27;;;;;;;1.92;1.83;;;10.20;99.90;;;;;;5044671;28;20103;-82
2022/12/31 08:21:53;;;;;;;1.60;1.50;;;10.20;99.90;;;;;;5030562;28;20041;-80
2022/12/31 08:24:51;;;;;;;2.10;1.90;;;11.70;99.90;;;;;;5074957;28;20075;-81
2022/12/31 08:27:27;;;;;;;4.82;1.30;;;10.30;99.90;;;;;;5058974;28;20664;-76
2022/12/31 08:30:09;;;;;;;0.90;0.90;;;10.30;99.90;;;;;;5040531;28;20517;-79
2022/12/31 08:32:58;;;;;;;1.10;1.10;;;10.30;99.90;;;;;;5072684;28;20037;-79
2022/12/31 08:35:55;;;;;;;3.08;1.10;;;10.40;99.90;;;;;;5041570;28;20124;-80
2022/12/31 08:38:46;;;;;;;1.52;1.42;;;10.40;99.90;;;;;;5030869;28;20397;-78
2022/12/31 08:41:23;;;;;;;1.40;1.40;;;10.40;99.90;;;;;;5047942;28;20044;-76
2022/12/31 08:44:21;;;;;;;2.38;1.92;;;10.50;99.90;;;;;;5028881;28;20079;-77
2022/12/31 08:46:53;;;;;;;6.50;5.90;;;10.50;99.90;;;;;;5043952;28;20056;-79
2022/12/31 08:49:19;;;;;;;2.90;2.70;;;10.50;99.90;;;;;;5045248;28;20037;-78
2022/12/31 08:51:45;;;;;;;2.67;2.58;;;10.50;99.90;;;;;;5080196;28;20053;-77
2022/12/31 08:54:11;;;;;;;1.98;1.88;;;10.60;99.90;;;;;;5055028;28;20095;-79
2022/12/31 08:56:49;;;;;;;3.10;2.90;;;10.60;99.90;;;;;;5047724;28;20484;-78
2022/12/31 08:59:37;;;;;;;2.65;2.55;;;10.70;99.90;;;;;;5055194;28;20049;-78
2022/12/31 09:02:06;;;;;;;3.22;2.97;;;10.70;99.90;;;;;;5024120;28;20044;-77
2022/12/31 09:04:53;;;;;;;2.30;2.20;;;10.90;99.90;;;;;;5058359;28;20155;-77
2022/12/31 09:07:28;;;;;;;2.85;2.70;;;11.50;99.90;;;;;;5046203;28;20050;-78
2022/12/31 09:10:02;;;;;;;3.78;3.50;;;11.00;99.90;;;;;;5063675;28;20416;-79
2022/12/31 09:12:40;;;;;;;4.95;4.47;;;11.00;99.90;;;;;;5031614;28;20523;-78
2022/12/31 09:15:19;;;;;;;2.45;2.35;;;11.10;99.90;;;;;;5046030;28;20090;-77
2022/12/31 09:17:49;;;;;;;2.15;2.05;;;11.20;99.90;;;;;;5045466;28;20044;-77
2022/12/31 09:20:27;;;;;;;3.15;2.90;;;11.30;99.90;;;;;;5042068;28;20664;-78
2022/12/31 09:22:54;;;;;;;4.87;2.27;;;10.60;99.90;;;;;;4363615;28;10021577;-78
2022/12/31 09:25:22;;;;;;;3.58;3.10;;;11.40;99.90;;;;;;5036357;28;20045;-78
2022/12/31 09:28:29;;;;;;;4.53;2.60;;;11.40;99.90;;;;;;5057082;28;20067;-78
2022/12/31 09:31:07;;;;;;;3.08;1.98;;;11.50;99.90;;;;;;5027036;28;20107;-79
2022/12/31 09:33:40;;;;;;;3.17;1.38;;;11.60;99.90;;;;;;5023532;28;20489;-79
2022/12/31 09:36:12;;;;;;;9.45;7.60;;;11.70;99.90;;;;;;5058647;28;20049;-79
2022/12/31 09:38:53;;;;;;;1.38;1.27;;;11.70;99.90;;;;;;5021077;28;20045;-79
2022/12/31 09:41:28;;;;;;;3.55;1.75;;;11.70;99.90;;;;;;5026201;28;20036;-76
2022/12/31 09:44:12;;;;;;;2.97;1.27;;;11.80;99.90;;;;;;5073115;28;20127;-77
2022/12/31 09:46:56;;;;;;;1.77;1.42;;;11.90;99.90;;;;;;5038547;28;20599;-78
2022/12/31 09:49:57;;;;;;;5.73;1.40;;;11.90;99.90;;;;;;5025718;28;20224;-78
2022/12/31 09:52:23;;;;;;;2.90;0.77;;;11.90;99.90;;;;;;5035569;28;20048;-79
2022/12/31 09:55:17;;;;;;;3.28;1.00;;;11.90;99.90;;;;;;5072223;28;20049;-79
2022/12/31 09:58:14;;;;;;;0.88;0.80;;;12.00;99.90;;;;;;5031343;28;20102;-79
2022/12/31 10:01:10;;;;;;;1.05;0.32;;;12.00;99.90;;;;;;5036891;28;20084;-81
2022/12/31 10:04:12;;;;;;;1.17;0.30;;;13.20;99.90;;;;;;5019870;28;20076;-80
2022/12/31 10:06:38;;;;;;;6.20;3.35;;;12.10;99.90;;;;;;5034395;28;20053;-80
2022/12/31 10:09:15;;;;;;;3.60;0.30;;;12.20;99.90;;;;;;5041661;28;20078;-80
2022/12/31 10:12:17;;;;;;;3.70;0.85;;;12.30;99.90;;;;;;5040282;28;20048;-80
2022/12/31 10:14:45;;;;;;;2.05;0.63;;;12.40;99.90;;;;;;5038919;28;20076;-80
2022/12/31 10:17:34;;;;;;;6.30;0.90;;;12.60;99.90;;;;;;5050944;28;20049;-80
2022/12/31 10:20:21;;;;;;;7.30;1.10;;;12.70;99.90;;;;;;5038927;28;20052;-80
2022/12/31 10:23:16;;;;;;;3.35;1.27;;;12.70;99.90;;;;;;5032255;28;20041;-80
2022/12/31 10:25:47;;;;;;;;;;;13.50;99.90;;;;;;5026626;28;20054;-80
2022/12/31 10:28:28;;;;;;;8.23;1.08;;;12.70;99.90;;;;;;5042034;28;19921;-79
2022/12/31 10:31:13;;;;;;;5.22;0.75;;;12.80;99.90;;;;;;5045566;28;20151;-81
2022/12/31 10:34:21;;;;;;;11.65;1.05;;;12.80;99.90;;;;;;5037415;28;20045;-81
2022/12/31 10:37:01;;;;;;;6.72;1.13;;;12.80;99.90;;;;;;5044291;28;20056;-80
2022/12/31 10:39:34;;;;;;;4.47;1.00;;;13.70;99.90;;;;;;5047671;28;20055;-79
2022/12/31 10:42:03;;;;;;;5.03;1.10;;;13.60;99.90;;;;;;5048396;28;20140;-80
2022/12/31 10:44:48;;;;;;;3.65;0.82;;;12.90;99.90;;;;;;5045204;28;20127;-82
2022/12/31 10:47:42;;;;;;;6.78;0.88;;;12.80;99.90;;;;;;5068137;28;20072;-80
2022/12/31 10:50:45;;;;;;;4.93;1.02;;;12.90;99.90;;;;;;5086923;28;20048;-78
2022/12/31 10:53:46;;;;;;;7.57;1.10;;;12.90;99.90;;;;;;5045985;28;20509;-81
2022/12/31 10:56:39;;;;;;;26.75;3.92;;;13.00;99.90;;;;;;5044553;28;20048;-79
2022/12/31 10:59:11;;;;;;;12.15;1.67;;;12.90;99.90;;;;;;5037179;28;20069;-80
2022/12/31 11:02:00;;;;;;;7.75;1.23;;;13.00;99.90;;;;;;5073082;28;20449;-81
2022/12/31 11:05:03;;;;;;;5.40;1.27;;;12.90;99.90;;;;;;5045264;28;20117;-77
2022/12/31 11:07:37;;;;;;;5.65;1.23;;;13.00;99.90;;;;;;5011875;28;20107;-77
2022/12/31 11:10:31;;;;;;;15.55;7.68;;;13.00;99.90;;;;;;5052294;28;20068;-79
2022/12/31 11:13:28;;;;;;;10.65;1.73;;;13.00;99.90;;;;;;5036260;28;20400;-80
2022/12/31 11:16:17;;;;;;;5.75;1.60;;;13.00;99.90;;;;;;5039193;28;20131;-77
2022/12/31 11:19:10;;;;;;;12.60;1.75;;;13.00;99.90;;;;;;5036547;28;20123;-78
2022/12/31 11:22:04;;;;;;;20.05;13.90;;;12.90;99.90;;;;;;5037117;28;20064;-79
2022/12/31 11:24:41;;;;;;;9.48;1.27;;;13.00;99.90;;;;;;5033063;28;20388;-76
2022/12/31 11:27:25;;;;;;;11.27;1.92;;;13.00;99.90;;;;;;5042065;28;20053;-80
2022/12/31 11:30:21;;;;;;;11.63;2.27;;;13.10;99.90;;;;;;5052117;28;20053;-80
2022/12/31 11:33:18;;;;;;;12.43;1.80;;;13.10;99.90;;;;;;5029726;28;20049;-83
2022/12/31 11:36:06;;;;;;;11.05;1.60;;;13.20;99.90;;;;;;5075262;28;20069;-79
2022/12/31 11:38:56;;;;;;;7.72;1.45;;;13.20;99.90;;;;;;5020660;28;20041;-83
2022/12/31 11:41:41;;;;;;;8.25;1.92;;;13.30;99.90;;;;;;5038859;28;20045;-79
2022/12/31 11:44:09;;;;;;;;;;;13.20;99.90;;;;;;5045950;28;20112;-82
2022/12/31 11:46:43;;;;;;;12.23;2.80;;;13.20;99.90;;;;;;5036077;28;19921;-80
2022/12/31 11:49:38;;;;;;;9.57;3.80;;;13.20;99.90;;;;;;5039886;28;20120;-81
2022/12/31 11:52:22;;;;;;;9.25;3.60;;;13.30;99.90;;;;;;5041315;28;20721;-80
2022/12/31 11:55:16;;;;;;;24.98;20.35;;;13.30;99.90;;;;;;5041127;28;20048;-79
2022/12/31 11:58:27;;;;;;;6.60;1.83;;;13.50;99.90;;;;;;5025506;28;21235;-89
2022/12/31 12:00:58;;;;;;;60.88;41.85;;;14.20;99.90;;;;;;5038174;28;20048;-79
2022/12/31 12:03:23;;;;;;;84.25;70.32;;;13.50;99.90;;;;;;5021552;28;20086;-83
2022/12/31 12:05:50;;;;;;;7.82;5.50;;;13.50;99.90;;;;;;5040332;28;20048;-84
2022/12/31 12:08:19;;;;;;;50.13;32.40;;;13.40;99.90;;;;;;5038917;28;20037;-89
2022/12/31 12:10:47;;;;;;;118.72;86.88;;;13.40;99.90;;;;;;5040551;28;20041;-79
2022/12/31 12:13:18;;;;;;;19.67;11.68;;;13.40;99.90;;;;;;5043448;28;20435;-80
2022/12/31 12:15:56;;;;;;;236.32;150.95;;;14.80;99.90;;;;;;5027429;28;20166;-82
2022/12/31 12:18:50;;;;;;;41.78;23.65;;;13.40;99.90;;;;;;5048779;28;20037;-84
2022/12/31 12:21:21;;;;;;;15.15;5.50;;;13.30;99.90;;;;;;5075978;28;20056;-83
2022/12/31 12:24:03;;;;;;;130.77;100.53;;;13.30;99.90;;;;;;5022384;28;20104;-83
2022/12/31 12:26:36;;;;;;;94.18;69.75;;;13.30;99.90;;;;;;5042531;28;20053;-85
2022/12/31 12:29:30;;;;;;;563.83;422.75;;;13.90;99.90;;;;;;5041246;28;20048;-82
2022/12/31 12:32:06;;;;;;;29.45;19.48;;;13.30;99.90;;;;;;5020209;28;20037;-83
2022/12/31 12:34:33;;;;;;;17.65;8.95;;;13.80;99.90;;;;;;5028063;28;20084;-82
2022/12/31 12:36:59;;;;;;;58.97;48.95;;;14.20;99.90;;;;;;5039194;28;20041;-81
2022/12/31 12:39:34;;;;;;;123.25;111.78;;;13.20;99.90;;;;;;5069920;28;20040;-79
2022/12/31 12:42:14;;;;;;;20.77;10.13;;;13.20;99.90;;;;;;5027789;28;20029;-79
2022/12/31 12:44:40;;;;;;;21.08;13.57;;;13.20;99.90;;;;;;5034246;28;20619;-81
2022/12/31 12:47:14;;;;;;;14.18;8.15;;;13.20;99.90;;;;;;5051517;28;20028;-90
2022/12/31 12:49:45;;;;;;;110.20;98.15;;;13.30;99.90;;;;;;5041299;28;20053;-84
2022/12/31 12:52:25;;;;;;;313.70;279.55;;;13.20;99.90;;;;;;5041472;28;20164;-89
2022/12/31 12:55:03;;;;;;;21.70;13.82;;;13.20;99.90;;;;;;5047082;28;20045;-81
2022/12/31 12:57:54;;;;;;;66.60;56.58;;;13.20;99.90;;;;;;5050210;28;20036;-86
2022/12/31 13:00:34;;;;;;;40.70;30.02;;;13.20;99.90;;;;;;5048516;28;20048;-78
2022/12/31 13:03:27;;;;;;;61.85;55.42;;;13.20;99.90;;;;;;5081723;28;20045;-77
2022/12/31 13:06:11;;;;;;;10.38;4.82;;;13.20;99.90;;;;;;5029227;28;20051;-78
2022/12/31 13:08:53;;;;;;;12.50;2.13;;;13.20;99.90;;;;;;5046562;28;20381;-79
2022/12/31 13:11:50;;;;;;;13.18;6.13;;;13.20;99.90;;;;;;5051550;28;20041;-84
2022/12/31 13:14:37;;;;;;;43.05;30.55;;;13.20;99.90;;;;;;5040431;28;20079;-77
2022/12/31 13:17:33;;;;;;;192.45;151.70;;;13.20;99.90;;;;;;5056726;28;20122;-79
2022/12/31 13:20:37;;;;;;;8.48;3.30;;;13.10;99.90;;;;;;5051914;28;20443;-79
2022/12/31 13:23:24;;;;;;;47.53;42.95;;;13.10;99.90;;;;;;5035636;28;20057;-79
2022/12/31 13:26:08;;;;;;;16.77;3.90;;;13.10;99.90;;;;;;5041720;28;20045;-77
2022/12/31 13:28:39;;;;;;;9.90;3.95;;;13.10;99.90;;;;;;5040170;28;20375;-79
2022/12/31 13:31:11;;;;;;;12.13;2.38;;;13.90;99.90;;;;;;5040003;28;20530;-79
2022/12/31 13:33:42;;;;;;;12.93;3.63;;;13.00;99.90;;;;;;5046943;28;20062;-79